CFG69 HEGN-EDDL
Flight info
| Callsign | CFG69 |
|---|---|
| Flight time | N/A |
| Altitude | 34000 |
| Route | BOTIX1B BOTIX V608 NABED T55 KUNKI P751 METRU DCT TUMBO DCT RETRA DCT BOSNA DCT IRDIV DCT PETOV DCT RENKA DCT EXITI DCT TESDU DCT AMETU T852 TINSA T854 DOMUX DOMUX2X |
| Aircraft | A320/M-SDE3FGHIRWY/LB1 |
Departure
| Time | N/A |
|---|---|
| Airport | Hurghada International Airport (HEGN) |
Arrival
| Time | 2026-02-19 13:18 |
|---|---|
| Airport | Düsseldorf Airport (EDDL) |
| Time | Latitude | Longitude | Altitude | Speed | Heading |
|---|---|---|---|---|---|
| 2026-02-19 12:50 | 50.96809 | 8.69438 | 33770 ft | 483 kts | 306° |
| 2026-02-19 12:51 | 50.98951 | 8.65145 | 33774 ft | 482 kts | 306° |
| 2026-02-19 12:51 | 51.02127 | 8.60142 | 33768 ft | 486 kts | 319° |
| 2026-02-19 12:52 | 51.19906 | 8.40712 | 33748 ft | 487 kts | 325° |
| 2026-02-19 12:53 | 51.24507 | 8.35902 | 33751 ft | 485 kts | 325° |
| 2026-02-19 12:53 | 51.29622 | 8.30544 | 33045 ft | 479 kts | 324° |
| 2026-02-19 12:54 | 51.32466 | 8.27557 | 31802 ft | 482 kts | 325° |
| 2026-02-19 12:54 | 51.35120 | 8.24762 | 30539 ft | 486 kts | 325° |
| 2026-02-19 12:54 | 51.37987 | 8.21740 | 29107 ft | 490 kts | 325° |
| 2026-02-19 12:54 | 51.40849 | 8.18717 | 27583 ft | 492 kts | 325° |
| 2026-02-19 12:55 | 51.43678 | 8.15724 | 26518 ft | 486 kts | 325° |
| 2026-02-19 12:55 | 51.46420 | 8.12824 | 25031 ft | 487 kts | 326° |
| 2026-02-19 12:55 | 51.49220 | 8.09725 | 23957 ft | 481 kts | 320° |
| 2026-02-19 12:55 | 51.51126 | 8.06580 | 23212 ft | 472 kts | 307° |
| 2026-02-19 12:56 | 51.52721 | 8.02047 | 22107 ft | 462 kts | 290° |
| 2026-02-19 12:56 | 51.53476 | 7.94934 | 20521 ft | 450 kts | 266° |
| 2026-02-19 12:56 | 51.52916 | 7.90089 | 19485 ft | 439 kts | 249° |
| 2026-02-19 12:57 | 51.51568 | 7.85912 | 18513 ft | 428 kts | 231° |
| 2026-02-19 12:57 | 51.49784 | 7.82614 | 17574 ft | 420 kts | 225° |
| 2026-02-19 12:57 | 51.47858 | 7.79274 | 16538 ft | 413 kts | 227° |
| 2026-02-19 12:57 | 51.46344 | 7.75599 | 15553 ft | 410 kts | 243° |
| 2026-02-19 12:58 | 51.45342 | 7.71255 | 14573 ft | 405 kts | 250° |
| 2026-02-19 12:58 | 51.44515 | 7.67123 | 13667 ft | 398 kts | 251° |
| 2026-02-19 12:58 | 51.43701 | 7.62921 | 12679 ft | 394 kts | 251° |
| 2026-02-19 12:58 | 51.42931 | 7.58739 | 12236 ft | 396 kts | 255° |
| 2026-02-19 12:59 | 51.42506 | 7.54446 | 11940 ft | 392 kts | 263° |
| 2026-02-19 12:59 | 51.42293 | 7.50045 | 11811 ft | 392 kts | 265° |
| 2026-02-19 12:59 | 51.42183 | 7.45792 | 11762 ft | 393 kts | 266° |
| 2026-02-19 12:59 | 51.42125 | 7.41284 | 11740 ft | 394 kts | 267° |
| 2026-02-19 13:00 | 51.42101 | 7.36905 | 11729 ft | 394 kts | 268° |
| 2026-02-19 13:00 | 51.42110 | 7.28312 | 11715 ft | 395 kts | 268° |
| 2026-02-19 13:00 | 51.42131 | 7.24139 | 11718 ft | 395 kts | 268° |
| 2026-02-19 13:01 | 51.42029 | 7.21240 | 11717 ft | 393 kts | 258° |
| 2026-02-19 13:01 | 51.41263 | 7.17463 | 11720 ft | 389 kts | 240° |
| 2026-02-19 13:01 | 51.39730 | 7.13854 | 11713 ft | 388 kts | 230° |
| 2026-02-19 13:01 | 51.37997 | 7.10562 | 11709 ft | 387 kts | 227° |
| 2026-02-19 13:02 | 51.36185 | 7.07354 | 11703 ft | 387 kts | 225° |
| 2026-02-19 13:02 | 51.34339 | 7.04211 | 11695 ft | 387 kts | 224° |
| 2026-02-19 13:02 | 51.32592 | 7.01303 | 11692 ft | 387 kts | 224° |
| 2026-02-19 13:02 | 51.30916 | 6.98546 | 11694 ft | 387 kts | 224° |
| 2026-02-19 13:03 | 51.29006 | 6.95421 | 11695 ft | 387 kts | 224° |
| 2026-02-19 13:03 | 51.27166 | 6.92421 | 11692 ft | 387 kts | 223° |
| 2026-02-19 13:03 | 51.25233 | 6.89277 | 11691 ft | 388 kts | 224° |
| 2026-02-19 13:03 | 51.23325 | 6.86166 | 11688 ft | 388 kts | 224° |
| 2026-02-19 13:04 | 51.21490 | 6.83018 | 11681 ft | 390 kts | 226° |
| 2026-02-19 13:04 | 51.18157 | 6.76676 | 11691 ft | 348 kts | 229° |
| 2026-02-19 13:04 | 51.17073 | 6.74444 | 11688 ft | 329 kts | 230° |
| 2026-02-19 13:05 | 51.15702 | 6.71571 | 11692 ft | 306 kts | 230° |
| 2026-02-19 13:05 | 51.14508 | 6.69050 | 11687 ft | 292 kts | 230° |
| 2026-02-19 13:05 | 51.14174 | 6.68345 | 11689 ft | 292 kts | 230° |
| 2026-02-19 13:05 | 51.13789 | 6.67534 | 11688 ft | 293 kts | 230° |
| 2026-02-19 13:06 | 51.13543 | 6.67016 | 11688 ft | 293 kts | 230° |
| 2026-02-19 13:06 | 51.12869 | 6.65598 | 11611 ft | 296 kts | 230° |
| 2026-02-19 13:06 | 51.11844 | 6.63446 | 11481 ft | 293 kts | 230° |
| 2026-02-19 13:06 | 51.10634 | 6.60901 | 11012 ft | 291 kts | 230° |
| 2026-02-19 13:07 | 51.09445 | 6.58417 | 10568 ft | 289 kts | 229° |
| 2026-02-19 13:07 | 51.08195 | 6.55808 | 10167 ft | 286 kts | 230° |
| 2026-02-19 13:07 | 51.06987 | 6.53300 | 9757 ft | 285 kts | 230° |
| 2026-02-19 13:07 | 51.05750 | 6.50713 | 9292 ft | 283 kts | 229° |
| 2026-02-19 13:08 | 51.04587 | 6.48289 | 8837 ft | 281 kts | 230° |
| 2026-02-19 13:08 | 51.02251 | 6.43397 | 7880 ft | 278 kts | 230° |
| 2026-02-19 13:08 | 51.01117 | 6.40860 | 7370 ft | 280 kts | 240° |
| 2026-02-19 13:09 | 51.00642 | 6.37864 | 6864 ft | 285 kts | 268° |
| 2026-02-19 13:09 | 51.01074 | 6.34803 | 6402 ft | 288 kts | 295° |
| 2026-02-19 13:09 | 51.02299 | 6.32350 | 5909 ft | 287 kts | 323° |
| 2026-02-19 13:09 | 51.03952 | 6.31040 | 5486 ft | 282 kts | 349° |
| 2026-02-19 13:10 | 51.05879 | 6.30989 | 5017 ft | 275 kts | 17° |
| 2026-02-19 13:10 | 51.07556 | 6.32305 | 4559 ft | 267 kts | 45° |
| 2026-02-19 13:10 | 51.08601 | 6.34628 | 4243 ft | 263 kts | 70° |
| 2026-02-19 13:10 | 51.09246 | 6.37294 | 4095 ft | 249 kts | 73° |
| 2026-02-19 13:11 | 51.09835 | 6.39823 | 4057 ft | 244 kts | 69° |
| 2026-02-19 13:11 | 51.10715 | 6.41943 | 4053 ft | 249 kts | 56° |
| 2026-02-19 13:11 | 51.11794 | 6.43982 | 4028 ft | 248 kts | 53° |
| 2026-02-19 13:11 | 51.12869 | 6.45927 | 4035 ft | 249 kts | 52° |
| 2026-02-19 13:12 | 51.14010 | 6.47956 | 4047 ft | 243 kts | 52° |
| 2026-02-19 13:12 | 51.16164 | 6.51753 | 4013 ft | 222 kts | 53° |
| 2026-02-19 13:12 | 51.17074 | 6.53369 | 3798 ft | 216 kts | 53° |
| 2026-02-19 13:13 | 51.18128 | 6.55237 | 3439 ft | 211 kts | 54° |
| 2026-02-19 13:13 | 51.19044 | 6.56862 | 3150 ft | 206 kts | 55° |
| 2026-02-19 13:13 | 51.19991 | 6.58598 | 2854 ft | 200 kts | 58° |
| 2026-02-19 13:13 | 51.20831 | 6.60296 | 2567 ft | 194 kts | 60° |
| 2026-02-19 13:14 | 51.21646 | 6.61987 | 2292 ft | 188 kts | 61° |
| 2026-02-19 13:14 | 51.22415 | 6.63590 | 2043 ft | 174 kts | 61° |
| 2026-02-19 13:14 | 51.23024 | 6.64870 | 1830 ft | 162 kts | 61° |
| 2026-02-19 13:14 | 51.23679 | 6.66245 | 1619 ft | 153 kts | 60° |
| 2026-02-19 13:15 | 51.24317 | 6.67581 | 1424 ft | 146 kts | 60° |
| 2026-02-19 13:15 | 51.24801 | 6.68595 | 1262 ft | 136 kts | 59° |
| 2026-02-19 13:15 | 51.25202 | 6.69435 | 1123 ft | 131 kts | 58° |
| 2026-02-19 13:15 | 51.25633 | 6.70351 | 977 ft | 126 kts | 57° |
| 2026-02-19 13:16 | 51.26165 | 6.71451 | 801 ft | 128 kts | 57° |
| 2026-02-19 13:16 | 51.27233 | 6.73669 | 430 ft | 126 kts | 57° |
| 2026-02-19 13:16 | 51.27588 | 6.74413 | 333 ft | 128 kts | 56° |
| 2026-02-19 13:17 | 51.28122 | 6.75513 | 174 ft | 127 kts | 56° |
| 2026-02-19 13:17 | 51.28547 | 6.76417 | 116 ft | 116 kts | 57° |
| 2026-02-19 13:17 | 51.28822 | 6.77075 | 117 ft | 97 kts | 51° |
| 2026-02-19 13:17 | 51.29030 | 6.77471 | 118 ft | 76 kts | 47° |
| 2026-02-19 13:18 | 51.29277 | 6.77982 | 116 ft | 35 kts | 59° |
| 2026-02-19 13:18 | 51.29279 | 6.78150 | 117 ft | 17 kts | 112° |
| 2026-02-19 13:18 | 51.29244 | 6.78196 | 118 ft | 8 kts | 178° |
| 2026-02-19 13:18 | 51.29178 | 6.78178 | 118 ft | 20 kts | 208° |
| 2026-02-19 13:19 | 51.29081 | 6.77994 | 117 ft | 20 kts | 223° |
| 2026-02-19 13:19 | 51.29003 | 6.77861 | 118 ft | 14 kts | 232° |
| 2026-02-19 13:19 | 51.28947 | 6.77746 | 117 ft | 15 kts | 232° |
| 2026-02-19 13:19 | 51.28873 | 6.77587 | 117 ft | 21 kts | 239° |
| 2026-02-19 13:20 | 51.28772 | 6.77379 | 117 ft | 26 kts | 229° |
| 2026-02-19 13:20 | 51.28526 | 6.76860 | 116 ft | 33 kts | 232° |
| 2026-02-19 13:20 | 51.28408 | 6.76835 | 117 ft | 21 kts | 130° |
| 2026-02-19 13:21 | 51.28332 | 6.76858 | 118 ft | 9 kts | 216° |
| 2026-02-19 13:21 | 51.28270 | 6.76753 | 114 ft | 20 kts | 224° |